createdAt,value
2022-08-10T00:00:58.075Z,0.98
2022-08-10T00:03:26.129Z,0.82
2022-08-10T00:05:56.473Z,0.90
2022-08-10T00:08:26.260Z,1.17
2022-08-10T00:10:55.238Z,0.98
2022-08-10T00:13:24.053Z,0.90
2022-08-10T00:15:54.957Z,0.85
2022-08-10T00:18:34.662Z,1.00
2022-08-10T00:21:04.988Z,1.15
2022-08-10T00:23:34.500Z,1.00
2022-08-10T00:26:02.781Z,1.10
2022-08-10T00:28:30.970Z,1.10
2022-08-10T00:30:59.127Z,0.90
2022-08-10T00:33:27.160Z,1.15
2022-08-10T00:35:55.198Z,1.08
2022-08-10T00:38:23.209Z,0.90
2022-08-10T00:40:52.563Z,0.82
2022-08-10T00:43:23.268Z,1.20
2022-08-10T00:45:59.099Z,1.15
2022-08-10T00:48:29.874Z,1.08
2022-08-10T00:50:59.100Z,1.00
2022-08-10T00:53:27.584Z,1.00
2022-08-10T00:57:12.168Z,0.80
2022-08-10T00:58:47.140Z,1.02
2022-08-10T01:02:09.786Z,0.90
2022-08-10T01:04:57.694Z,1.08
2022-08-10T01:07:04.578Z,0.95
2022-08-10T01:09:41.775Z,1.38
2022-08-10T01:12:37.812Z,0.95
2022-08-10T01:15:12.241Z,0.90
2022-08-10T01:17:51.627Z,0.90
2022-08-10T01:20:31.258Z,1.05
2022-08-10T01:23:50.468Z,1.00
2022-08-10T01:26:40.664Z,0.90
2022-08-10T01:29:43.884Z,1.00
2022-08-10T01:32:17.002Z,0.80
2022-08-10T01:34:55.953Z,0.80
2022-08-10T01:37:27.495Z,0.88
2022-08-10T01:39:58.510Z,1.25
2022-08-10T01:42:29.177Z,0.90
2022-08-10T01:44:58.519Z,1.00
2022-08-10T01:47:51.979Z,0.90
2022-08-10T01:50:23.937Z,1.08
2022-08-10T01:52:56.882Z,1.00
2022-08-10T01:55:25.937Z,0.80
2022-08-10T01:57:56.042Z,1.00
2022-08-10T02:00:26.007Z,0.73
2022-08-10T02:02:56.259Z,0.85
2022-08-10T02:05:29.353Z,0.80
2022-08-10T02:08:00.611Z,0.70
2022-08-10T02:10:30.268Z,0.80
2022-08-10T02:12:59.279Z,0.85
2022-08-10T02:15:33.474Z,1.00
2022-08-10T02:18:05.887Z,0.90
2022-08-10T02:20:37.331Z,0.95
2022-08-10T02:23:09.718Z,0.73
2022-08-10T02:25:43.626Z,0.80
2022-08-10T02:28:27.219Z,0.90
2022-08-10T02:31:04.279Z,0.85
2022-08-10T02:33:37.998Z,0.90
2022-08-10T02:36:08.274Z,0.90
2022-08-10T02:38:59.627Z,0.70
2022-08-10T02:45:01.648Z,0.85
2022-08-10T02:45:20.365Z,0.80
2022-08-10T02:47:25.762Z,0.80
2022-08-10T02:50:02.345Z,0.93
2022-08-10T02:52:38.326Z,0.80
2022-08-10T02:55:17.686Z,0.73
2022-08-10T02:58:17.453Z,0.90
2022-08-10T03:00:45.781Z,0.90
2022-08-10T03:03:19.554Z,0.80
2022-08-10T03:05:53.655Z,0.80
2022-08-10T03:08:26.850Z,0.80
2022-08-10T03:10:57.462Z,0.70
2022-08-10T03:13:26.062Z,1.00
2022-08-10T03:15:55.662Z,0.80
2022-08-10T03:18:25.210Z,1.00
2022-08-10T03:20:56.144Z,0.70
2022-08-10T03:23:26.302Z,0.90
2022-08-10T03:25:57.540Z,0.80
2022-08-10T03:28:28.443Z,0.85
2022-08-10T03:30:57.832Z,0.80
2022-08-10T03:33:29.909Z,0.70
2022-08-10T03:36:42.310Z,1.00
2022-08-10T03:38:51.476Z,0.80
2022-08-10T03:41:24.574Z,0.90
2022-08-10T03:43:54.389Z,0.80
2022-08-10T03:46:25.731Z,0.60
2022-08-10T03:48:57.479Z,0.82
2022-08-10T03:51:29.281Z,0.70
2022-08-10T03:54:03.193Z,0.77
2022-08-10T03:56:35.992Z,0.70
2022-08-10T03:59:04.154Z,0.80
2022-08-10T04:02:41.480Z,0.80
2022-08-10T04:04:24.614Z,0.70
2022-08-10T04:06:56.104Z,0.82
2022-08-10T04:09:43.186Z,0.70
2022-08-10T04:12:14.344Z,0.70
2022-08-10T04:14:51.218Z,0.70
2022-08-10T04:18:01.384Z,0.60
2022-08-10T04:20:17.435Z,0.70
2022-08-10T04:22:50.959Z,0.68
2022-08-10T04:25:20.367Z,1.15
2022-08-10T04:27:49.427Z,0.82
2022-08-10T04:30:17.604Z,0.98
2022-08-10T04:32:48.826Z,0.80
2022-08-10T04:35:20.082Z,0.60
2022-08-10T04:37:50.531Z,0.80
2022-08-10T04:40:28.682Z,0.82
2022-08-10T04:43:08.962Z,0.70
2022-08-10T04:45:49.406Z,0.70
2022-08-10T04:48:39.977Z,0.80
2022-08-10T04:51:10.758Z,0.90
2022-08-10T04:54:04.348Z,0.57
2022-08-10T04:56:31.663Z,0.80
2022-08-10T04:59:00.403Z,0.90
2022-08-10T05:02:22.567Z,0.70
2022-08-10T05:04:38.665Z,0.70
2022-08-10T05:07:05.649Z,0.63
2022-08-10T05:10:02.996Z,0.95
2022-08-10T05:12:23.157Z,0.70
2022-08-10T05:14:52.087Z,0.70
2022-08-10T05:17:20.405Z,0.80
2022-08-10T05:20:03.337Z,0.70
2022-08-10T05:22:35.300Z,0.60
2022-08-10T05:25:06.592Z,0.70
2022-08-10T05:27:34.736Z,0.88
2022-08-10T05:30:03.772Z,0.90
2022-08-10T05:32:34.356Z,0.70
2022-08-10T05:35:20.801Z,0.80
2022-08-10T05:38:12.962Z,0.75
2022-08-10T05:40:39.395Z,0.70
2022-08-10T05:43:07.909Z,0.70
2022-08-10T05:46:18.842Z,0.52
2022-08-10T05:48:54.414Z,0.70
2022-08-10T05:51:12.644Z,0.80
2022-08-10T05:54:01.648Z,0.70
2022-08-10T05:56:53.612Z,0.80
2022-08-10T06:00:10.687Z,0.70
2022-08-10T06:02:32.896Z,0.80
2022-08-10T06:04:59.624Z,1.20
2022-08-10T06:07:29.803Z,1.60
2022-08-10T06:10:00.428Z,1.30
2022-08-10T06:12:32.764Z,2.00
2022-08-10T06:15:10.168Z,2.28
2022-08-10T06:17:39.413Z,2.15
2022-08-10T06:20:08.353Z,2.33
2022-08-10T06:22:36.750Z,2.05
2022-08-10T06:25:32.349Z,2.22
2022-08-10T06:27:56.094Z,2.33
2022-08-10T06:30:25.722Z,2.13
2022-08-10T06:32:56.690Z,2.33
2022-08-10T06:35:29.145Z,2.15
2022-08-10T06:38:00.407Z,2.38
2022-08-10T06:40:32.993Z,2.10
2022-08-10T06:43:06.235Z,2.10
2022-08-10T06:45:40.178Z,2.60
2022-08-10T06:48:17.126Z,2.53
2022-08-10T06:50:58.139Z,2.05
2022-08-10T06:53:52.974Z,2.40
2022-08-10T06:56:36.651Z,2.00
2022-08-10T06:59:14.583Z,2.45
2022-08-10T07:01:54.120Z,2.47
2022-08-10T07:04:32.223Z,2.00
2022-08-10T07:07:05.064Z,2.33
2022-08-10T07:09:36.019Z,2.20
2022-08-10T07:12:08.001Z,1.90
2022-08-10T07:14:41.653Z,2.50
2022-08-10T07:17:15.620Z,2.60
2022-08-10T07:19:50.494Z,2.50
2022-08-10T07:23:08.109Z,2.20
2022-08-10T07:25:13.834Z,2.13
2022-08-10T07:27:59.542Z,2.30
2022-08-10T07:30:32.910Z,1.95
2022-08-10T07:33:03.218Z,1.92
2022-08-10T07:35:42.022Z,2.33
2022-08-10T07:38:14.851Z,2.55
2022-08-10T07:40:44.949Z,2.70
2022-08-10T07:43:14.507Z,2.40
2022-08-10T07:45:43.956Z,2.90
2022-08-10T07:48:16.973Z,2.40
2022-08-10T07:50:46.333Z,2.25
2022-08-10T07:53:21.207Z,2.15
2022-08-10T07:58:51.728Z,2.22
2022-08-10T08:01:28.865Z,2.78
2022-08-10T08:04:11.503Z,2.25
2022-08-10T08:06:42.596Z,2.10
2022-08-10T08:09:11.779Z,2.67
2022-08-10T08:11:40.928Z,2.10
2022-08-10T08:14:10.687Z,2.47
2022-08-10T08:16:43.484Z,2.00
2022-08-10T08:19:37.159Z,3.08
2022-08-10T08:24:06.201Z,2.30
2022-08-10T08:24:52.791Z,2.50
2022-08-10T08:27:21.546Z,2.58
2022-08-10T08:29:50.927Z,2.20
2022-08-10T08:32:23.358Z,2.55
2022-08-10T08:34:55.603Z,2.10
2022-08-10T08:38:32.977Z,2.35
2022-08-10T08:40:19.472Z,2.22
2022-08-10T08:43:23.021Z,2.30
2022-08-10T08:46:28.383Z,2.15
2022-08-10T08:50:08.234Z,2.60
2022-08-10T08:52:42.793Z,3.00
2022-08-10T08:56:03.749Z,2.30
2022-08-10T08:58:54.489Z,2.20
2022-08-10T09:01:41.632Z,2.30
2022-08-10T09:04:28.895Z,2.03
2022-08-10T09:07:59.582Z,1.85
2022-08-10T09:10:20.460Z,2.50
2022-08-10T09:12:55.601Z,2.10
2022-08-10T09:15:40.563Z,2.15
2022-08-10T09:18:15.981Z,2.22
2022-08-10T09:20:50.857Z,2.28
2022-08-10T09:26:20.590Z,2.22
2022-08-10T09:29:11.483Z,2.17
2022-08-10T09:32:54.932Z,2.67
2022-08-10T09:37:42.505Z,2.08
2022-08-10T09:41:00.538Z,2.40
2022-08-10T09:43:26.536Z,2.30
2022-08-10T09:46:03.554Z,2.38
2022-08-10T09:48:39.320Z,2.08
2022-08-10T09:54:22.109Z,2.45
2022-08-10T09:57:17.950Z,2.10
2022-08-10T10:00:01.609Z,2.58
2022-08-10T10:02:37.475Z,2.45
2022-08-10T10:05:15.681Z,2.75
2022-08-10T10:07:50.432Z,2.40
2022-08-10T10:10:25.354Z,2.97
2022-08-10T10:15:35.960Z,2.40
2022-08-10T10:18:19.822Z,2.55
2022-08-10T10:20:56.637Z,2.38
2022-08-10T10:23:36.187Z,2.75
2022-08-10T10:26:18.418Z,2.63
2022-08-10T10:29:30.589Z,3.10
2022-08-10T10:31:58.826Z,2.95
2022-08-10T10:34:36.684Z,2.75
2022-08-10T10:37:07.786Z,3.00
2022-08-10T10:39:40.844Z,2.55
2022-08-10T10:42:42.248Z,2.90
2022-08-10T10:45:19.109Z,2.60
2022-08-10T10:48:03.694Z,2.35
2022-08-10T10:50:40.095Z,2.30
2022-08-10T10:53:15.211Z,2.78
2022-08-10T10:56:13.385Z,2.90
2022-08-10T10:58:48.986Z,2.72
2022-08-10T11:01:36.032Z,3.47
2022-08-10T11:04:15.480Z,3.80
2022-08-10T11:06:53.586Z,2.95
2022-08-10T11:10:09.345Z,3.03
2022-08-10T11:12:26.213Z,3.10
2022-08-10T11:15:03.938Z,3.08
2022-08-10T11:17:37.247Z,3.40
2022-08-10T11:20:13.479Z,3.00
2022-08-10T11:22:49.238Z,2.83
2022-08-10T11:25:23.362Z,3.63
2022-08-10T11:27:58.044Z,3.50
2022-08-10T11:30:32.352Z,3.70
2022-08-10T11:33:13.666Z,3.65
2022-08-10T11:35:48.247Z,3.25
2022-08-10T11:38:34.435Z,3.70
2022-08-10T11:42:05.553Z,3.83
2022-08-10T11:44:09.968Z,3.45
2022-08-10T11:46:46.353Z,4.00
2022-08-10T11:49:23.731Z,4.57
2022-08-10T11:51:56.393Z,3.95
2022-08-10T11:54:32.160Z,3.97
2022-08-10T11:57:02.774Z,4.15
2022-08-10T11:59:57.911Z,3.75
2022-08-10T12:02:33.040Z,4.20
2022-08-10T12:05:07.579Z,4.85
2022-08-10T12:10:07.708Z,3.65
2022-08-10T12:10:28.899Z,4.35
2022-08-10T12:13:06.559Z,4.35
2022-08-10T12:15:39.926Z,4.03
2022-08-10T12:18:16.291Z,3.95
2022-08-10T12:20:50.768Z,4.07
2022-08-10T12:23:24.972Z,4.45
2022-08-10T12:25:59.430Z,4.00
2022-08-10T12:28:50.884Z,4.35
2022-08-10T12:31:26.287Z,4.82
2022-08-10T12:34:09.750Z,4.32
2022-08-10T12:36:42.434Z,4.25
2022-08-10T12:39:17.425Z,4.68
2022-08-10T12:41:54.038Z,4.45
2022-08-10T12:44:41.630Z,3.83
2022-08-10T12:47:19.708Z,4.28
2022-08-10T12:50:29.254Z,4.63
2022-08-10T12:52:53.019Z,4.28
2022-08-10T12:55:22.159Z,4.55
2022-08-10T12:57:54.974Z,4.15
2022-08-10T13:00:32.663Z,4.30
2022-08-10T13:03:02.572Z,5.20
2022-08-10T13:06:00.318Z,4.40
2022-08-10T13:08:41.572Z,4.60
2022-08-10T13:12:29.497Z,4.80
2022-08-10T13:14:07.823Z,4.53
2022-08-10T13:16:36.317Z,4.35
2022-08-10T13:19:06.484Z,4.63
2022-08-10T13:21:39.079Z,4.55
2022-08-10T13:24:11.851Z,3.40
2022-08-10T13:26:49.555Z,4.38
2022-08-10T13:29:37.460Z,4.53
2022-08-10T13:32:10.693Z,5.03
2022-08-10T13:34:45.783Z,4.30
2022-08-10T13:37:22.146Z,4.03
2022-08-10T13:39:59.008Z,4.20
2022-08-10T13:42:32.803Z,4.35
2022-08-10T13:45:08.620Z,4.88
2022-08-10T13:47:49.729Z,5.65
2022-08-10T13:50:35.681Z,4.30
2022-08-10T13:53:14.833Z,5.15
2022-08-10T13:55:53.843Z,4.10
2022-08-10T13:58:25.906Z,4.47
2022-08-10T14:00:57.090Z,4.50
2022-08-10T14:03:26.929Z,3.65
2022-08-10T14:05:58.494Z,4.60
2022-08-10T14:08:32.189Z,4.55
2022-08-10T14:11:08.940Z,3.85
2022-08-10T14:13:44.293Z,3.97
2022-08-10T14:16:14.359Z,4.57
2022-08-10T14:18:45.184Z,4.15
2022-08-10T14:21:14.656Z,4.13
2022-08-10T14:23:48.611Z,4.28
2022-08-10T14:26:22.863Z,3.95
2022-08-10T14:28:55.044Z,4.28
2022-08-10T14:31:26.945Z,4.13
2022-08-10T14:33:59.286Z,4.18
2022-08-10T14:36:34.280Z,4.70
2022-08-10T14:39:05.214Z,4.38
2022-08-10T14:42:03.224Z,3.50
2022-08-10T14:44:25.851Z,4.85
2022-08-10T14:46:58.388Z,3.60
2022-08-10T14:49:27.570Z,4.63
2022-08-10T14:52:02.109Z,4.15
2022-08-10T14:54:34.142Z,4.10
2022-08-10T14:57:11.339Z,3.90
2022-08-10T15:00:22.798Z,5.00
2022-08-10T15:02:56.012Z,3.22
2022-08-10T15:05:39.583Z,3.58
2022-08-10T15:08:11.047Z,3.63
2022-08-10T15:10:41.517Z,4.53
2022-08-10T15:13:34.426Z,3.50
2022-08-10T15:16:12.532Z,4.03
2022-08-10T15:18:57.912Z,4.07
2022-08-10T15:21:42.362Z,4.75
2022-08-10T15:24:37.917Z,4.28
2022-08-10T15:27:10.127Z,3.88
2022-08-10T15:29:57.008Z,3.40
2022-08-10T15:32:52.495Z,3.40
2022-08-10T15:35:42.117Z,3.03
2022-08-10T15:38:10.959Z,3.78
2022-08-10T15:40:52.217Z,3.40
2022-08-10T15:43:25.701Z,3.70
2022-08-10T15:46:04.988Z,3.50
2022-08-10T15:48:40.131Z,2.83
2022-08-10T15:51:17.272Z,3.35
2022-08-10T15:53:51.588Z,3.58
2022-08-10T15:56:27.889Z,3.00
2022-08-10T15:59:07.966Z,3.00
2022-08-10T16:02:12.488Z,3.28
2022-08-10T16:04:34.066Z,2.70
2022-08-10T16:07:06.417Z,2.75
2022-08-10T16:10:23.981Z,2.20
2022-08-10T16:12:34.224Z,2.35
2022-08-10T16:15:07.930Z,1.83
2022-08-10T16:17:54.556Z,2.20
2022-08-10T16:20:31.923Z,1.77
2022-08-10T16:23:03.151Z,2.10
2022-08-10T16:25:48.297Z,1.70
2022-08-10T16:28:23.731Z,2.08
2022-08-10T16:30:56.428Z,1.45
2022-08-10T16:33:28.071Z,1.60
2022-08-10T16:36:18.450Z,1.77
2022-08-10T16:38:50.331Z,1.38
2022-08-10T16:42:03.063Z,1.52
2022-08-10T16:44:12.263Z,1.40
2022-08-10T16:46:45.648Z,1.45
2022-08-10T16:49:14.999Z,1.50
2022-08-10T16:51:48.127Z,1.35
2022-08-10T16:54:23.674Z,1.08
2022-08-10T16:57:00.326Z,1.40
2022-08-10T16:59:31.618Z,1.17
2022-08-10T17:02:02.905Z,1.67
2022-08-10T17:04:32.015Z,1.10
2022-08-10T17:07:03.893Z,0.90
2022-08-10T17:09:34.984Z,1.30
2022-08-10T17:12:10.409Z,1.10
2022-08-10T17:14:40.883Z,1.13
2022-08-10T17:17:18.795Z,0.85
2022-08-10T17:19:46.948Z,0.90
2022-08-10T17:22:18.475Z,0.93
2022-08-10T17:24:50.989Z,0.93
2022-08-10T17:28:05.152Z,1.20
2022-08-10T17:30:14.325Z,0.80
2022-08-10T17:32:50.708Z,1.20
2022-08-10T17:35:23.642Z,0.70
2022-08-10T17:37:59.032Z,0.95
2022-08-10T17:40:29.901Z,0.93
2022-08-10T17:42:59.529Z,1.00
2022-08-10T17:45:48.068Z,0.90
2022-08-10T17:48:21.214Z,0.93
2022-08-10T17:50:52.182Z,0.80
2022-08-10T17:53:23.404Z,0.70
2022-08-10T17:55:56.604Z,0.80
2022-08-10T17:58:27.086Z,0.90
2022-08-10T18:01:40.275Z,0.88
2022-08-10T18:03:52.497Z,0.75
2022-08-10T18:06:21.461Z,0.77
2022-08-10T18:08:53.248Z,0.85
2022-08-10T18:11:25.103Z,0.50
2022-08-10T18:13:56.839Z,0.55
2022-08-10T18:16:28.429Z,0.73
2022-08-10T18:19:04.766Z,0.90
2022-08-10T18:21:33.769Z,0.40
2022-08-10T18:24:07.649Z,0.70
2022-08-10T18:26:37.365Z,0.60
2022-08-10T18:29:12.532Z,1.02
2022-08-10T18:31:44.620Z,0.65
2022-08-10T18:34:20.182Z,0.60
2022-08-10T18:36:49.583Z,0.55
2022-08-10T18:39:22.796Z,0.75
2022-08-10T18:42:00.764Z,0.50
2022-08-10T18:44:37.042Z,0.60
2022-08-10T18:47:12.406Z,0.50
2022-08-10T18:49:54.480Z,0.60
2022-08-10T18:52:25.984Z,0.50
2022-08-10T18:55:03.436Z,0.60
2022-08-10T18:58:05.367Z,0.60
2022-08-10T19:00:37.595Z,0.70
2022-08-10T19:03:37.113Z,0.43
2022-08-10T19:06:19.719Z,0.50
2022-08-10T19:09:09.603Z,0.52
2022-08-10T19:12:06.237Z,0.45
2022-08-10T19:15:06.907Z,0.50
2022-08-10T19:18:05.745Z,0.50
2022-08-10T19:20:36.967Z,0.70
2022-08-10T19:23:18.660Z,0.47
2022-08-10T19:26:43.041Z,0.40
2022-08-10T19:28:48.222Z,0.40
2022-08-10T19:31:44.591Z,0.85
2022-08-10T19:34:35.502Z,0.70
2022-08-10T19:37:11.149Z,0.70
2022-08-10T19:39:59.782Z,0.50
2022-08-10T19:42:36.237Z,0.40
2022-08-10T19:46:00.794Z,0.60
2022-08-10T19:48:12.889Z,0.60
2022-08-10T19:50:50.215Z,0.50
2022-08-10T19:53:26.533Z,0.38
2022-08-10T19:56:24.417Z,0.60
2022-08-10T19:59:10.247Z,0.77
2022-08-10T20:01:55.329Z,0.52
2022-08-10T20:04:31.827Z,0.50
2022-08-10T20:07:11.852Z,0.50
2022-08-10T20:09:47.210Z,0.60
2022-08-10T20:12:27.510Z,0.65
2022-08-10T20:15:04.240Z,0.45
2022-08-10T20:17:51.248Z,0.73
2022-08-10T20:20:29.168Z,0.52
2022-08-10T20:23:08.870Z,0.73
2022-08-10T20:25:36.991Z,0.65
2022-08-10T20:28:14.246Z,0.70
2022-08-10T20:30:46.440Z,0.63
2022-08-10T20:33:19.195Z,0.70
2022-08-10T20:35:51.195Z,0.82
2022-08-10T20:38:27.505Z,0.80
2022-08-10T20:41:09.528Z,1.10
2022-08-10T20:43:45.605Z,1.13
2022-08-10T20:46:33.617Z,0.98
2022-08-10T20:49:09.455Z,1.13
2022-08-10T20:51:57.384Z,0.80
2022-08-10T20:54:33.792Z,0.82
2022-08-10T20:57:54.709Z,0.95
2022-08-10T21:00:15.245Z,0.93
2022-08-10T21:03:20.707Z,1.00
2022-08-10T21:05:59.930Z,1.05
2022-08-10T21:08:42.823Z,1.10
2022-08-10T21:11:18.652Z,1.00
2022-08-10T21:14:06.671Z,0.90
2022-08-10T21:16:49.954Z,1.00
2022-08-10T21:19:36.665Z,1.10
2022-08-10T21:22:16.013Z,1.15
2022-08-10T21:24:52.363Z,1.15
2022-08-10T21:27:48.743Z,1.13
2022-08-10T21:30:17.638Z,1.08
2022-08-10T21:32:54.555Z,1.42
2022-08-10T21:35:37.646Z,1.20
2022-08-10T21:38:19.462Z,1.23
2022-08-10T21:41:18.689Z,1.20
2022-08-10T21:44:18.216Z,1.20
2022-08-10T21:47:27.121Z,1.20
2022-08-10T21:50:27.493Z,1.77
2022-08-10T21:53:22.716Z,1.10
2022-08-10T21:56:36.677Z,1.60
2022-08-10T21:59:28.541Z,1.20
2022-08-10T22:02:28.288Z,1.20
2022-08-10T22:05:20.253Z,1.30
2022-08-10T22:08:12.316Z,1.30
2022-08-10T22:11:07.030Z,1.27
2022-08-10T22:14:01.062Z,1.23
2022-08-10T22:17:01.102Z,1.30
2022-08-10T22:19:51.463Z,1.63
2022-08-10T22:22:45.244Z,1.45
2022-08-10T22:25:57.139Z,1.63
2022-08-10T22:28:48.611Z,1.38
2022-08-10T22:31:50.747Z,1.33
2022-08-10T22:34:59.342Z,1.60
2022-08-10T22:37:57.794Z,1.38
2022-08-10T22:40:43.977Z,1.52
2022-08-10T22:43:40.074Z,1.50
2022-08-10T22:46:32.601Z,1.38
2022-08-10T22:48:59.944Z,1.33
2022-08-10T22:51:40.915Z,1.33
2022-08-10T22:54:37.950Z,1.30
2022-08-10T22:57:24.520Z,1.67
2022-08-10T22:59:53.962Z,1.60
2022-08-10T23:02:51.748Z,1.20
2022-08-10T23:05:28.958Z,1.20
2022-08-10T23:08:02.632Z,1.33
2022-08-10T23:10:39.215Z,1.50
2022-08-10T23:13:11.422Z,1.48
2022-08-10T23:16:11.948Z,1.55
2022-08-10T23:19:00.651Z,1.58
2022-08-10T23:22:03.139Z,1.60
2022-08-10T23:24:28.358Z,1.30
2022-08-10T23:26:57.991Z,1.50
2022-08-10T23:29:39.850Z,1.50
2022-08-10T23:32:32.827Z,1.33
2022-08-10T23:36:31.339Z,1.38
2022-08-10T23:37:57.637Z,1.48
2022-08-10T23:40:27.202Z,1.60
2022-08-10T23:42:56.772Z,1.45
2022-08-10T23:45:27.164Z,1.52
2022-08-10T23:48:00.121Z,1.48
2022-08-10T23:50:30.058Z,1.70
2022-08-10T23:53:01.449Z,1.33
2022-08-10T23:55:33.831Z,1.50
2022-08-10T23:58:30.304Z,1.48
